This is the latest recevied weather packets stored in our database for station/object IZ1UQG-N2. If no packets are shown the sender has not sent any weather packets the latest 10 day(s).
| Time | Temp. | Humidity | Pressure | Rain* | Wind** | Luminosity | Snow |
|---|---|---|---|---|---|---|---|
| 1777622368 | 13.89° C | 57% | 1026.5 hPa | 0 mm | - | 181 W/m² | - |
| 1777622347 | 13.89° C | 57% | 1026.5 hPa | 0 mm | - | 181 W/m² | - |
| 1777622307 | 13.89° C | 57% | 1026.5 hPa | 0 mm | - | 179 W/m² | - |
| 1777622248 | 13.89° C | 56% | 1026.4 hPa | 0 mm | - | 178 W/m² | - |
| 1777622238 | 13.89° C | 56% | 1026.5 hPa | 0 mm | - | 169 W/m² | - |
| 1777622188 | 13.89° C | 56% | 1026.4 hPa | 0 mm | - | 174 W/m² | - |
| 1777622168 | 13.89° C | 56% | 1026.4 hPa | 0 mm | - | 174 W/m² | - |
| 1777622128 | 13.89° C | 56% | 1026.4 hPa | 0 mm | - | 172 W/m² | - |
| 1777622068 | 13.89° C | 56% | 1026.5 hPa | 0 mm | - | 171 W/m² | - |
| 1777622008 | 13.89° C | 56% | 1026.5 hPa | 0 mm | - | 169 W/m² | - |
| 1777621987 | 13.89° C | 56% | 1026.5 hPa | 0 mm | - | 169 W/m² | - |
| 1777621958 | 13.89° C | 60% | 1026.5 hPa | 0 mm | - | 163 W/m² | - |
| 1777621947 | 13.89° C | 56% | 1026.5 hPa | 0 mm | - | 169 W/m² | - |
| 1777621898 | 13.89° C | 60% | 1026.4 hPa | 0 mm | - | 162 W/m² | - |
| 1777621887 | 13.89° C | 58% | 1026.4 hPa | 0 mm | - | 167 W/m² | - |
| 1777621878 | 13.89° C | 60% | 1026.4 hPa | 0 mm | - | 162 W/m² | - |
| 1777621838 | 13.89° C | 58% | 1026.5 hPa | 0 mm | - | 162 W/m² | - |
| 1777621826 | 13.89° C | 58% | 1026.4 hPa | 0 mm | - | 167 W/m² | - |
| 1777621808 | 13.89° C | 58% | 1026.4 hPa | 0 mm | - | 167 W/m² | - |
| 1777621768 | 13.89° C | 59% | 1026.5 hPa | 0 mm | - | 163 W/m² | - |
| 1777621707 | 13.89° C | 60% | 1026.5 hPa | 0 mm | - | 163 W/m² | - |
| 1777621647 | 13.89° C | 60% | 1026.4 hPa | 0 mm | - | 162 W/m² | - |
| 1777621627 | 13.89° C | 60% | 1026.4 hPa | 0 mm | - | 162 W/m² | - |
| 1777621587 | 13.89° C | 58% | 1026.5 hPa | 0 mm | - | 162 W/m² | - |
| 1777621527 | 13.89° C | 60% | 1026.5 hPa | 0 mm | - | 162 W/m² | - |
* Rain latest hour (hover to see other rain measurements)
** Current wind speed in m/s (hover to see current wind gust speed)